sensor_id;sensor_type;location;lat;lon;timestamp;temperature;humidity
51615;DHT22;37695;52.960;6.188;2022-10-04T00:00:27;12.20;99.90
51615;DHT22;37695;52.960;6.188;2022-10-04T00:03:05;12.20;99.90
51615;DHT22;37695;52.960;6.188;2022-10-04T00:05:32;12.10;99.90
51615;DHT22;37695;52.960;6.188;2022-10-04T00:08:12;11.90;99.90
51615;DHT22;37695;52.960;6.188;2022-10-04T00:10:42;12.10;99.90
51615;DHT22;37695;52.960;6.188;2022-10-04T00:13:21;12.10;99.90
51615;DHT22;37695;52.960;6.188;2022-10-04T00:15:48;12.10;99.90
51615;DHT22;37695;52.960;6.188;2022-10-04T00:18:40;12.10;99.90
51615;DHT22;37695;52.960;6.188;2022-10-04T00:21:07;12.10;99.90
51615;DHT22;37695;52.960;6.188;2022-10-04T00:36:59;12.10;99.90
51615;DHT22;37695;52.960;6.188;2022-10-04T00:42:23;12.10;99.90
51615;DHT22;37695;52.960;6.188;2022-10-04T00:45:12;12.10;99.90
51615;DHT22;37695;52.960;6.188;2022-10-04T00:50:37;12.10;99.90
51615;DHT22;37695;52.960;6.188;2022-10-04T00:56:00;12.00;99.90
51615;DHT22;37695;52.960;6.188;2022-10-04T00:58:33;12.00;99.90
51615;DHT22;37695;52.960;6.188;2022-10-04T01:01:01;12.00;99.90
51615;DHT22;37695;52.960;6.188;2022-10-04T01:03:31;12.00;99.90
51615;DHT22;37695;52.960;6.188;2022-10-04T01:06:00;12.00;99.90
51615;DHT22;37695;52.960;6.188;2022-10-04T01:08:32;12.00;99.90
51615;DHT22;37695;52.960;6.188;2022-10-04T01:11:08;12.00;99.90
51615;DHT22;37695;52.960;6.188;2022-10-04T01:13:39;12.00;99.90
51615;DHT22;37695;52.960;6.188;2022-10-04T01:16:09;12.10;99.90
51615;DHT22;37695;52.960;6.188;2022-10-04T01:18:38;12.00;99.90
51615;DHT22;37695;52.960;6.188;2022-10-04T01:23:51;12.10;99.90
51615;DHT22;37695;52.960;6.188;2022-10-04T01:29:32;12.00;99.90
51615;DHT22;37695;52.960;6.188;2022-10-04T01:31:59;12.00;99.90
51615;DHT22;37695;52.960;6.188;2022-10-04T01:34:28;12.00;99.90
51615;DHT22;37695;52.960;6.188;2022-10-04T01:36:56;12.00;99.90
51615;DHT22;37695;52.960;6.188;2022-10-04T01:39:24;12.00;99.90
51615;DHT22;37695;52.960;6.188;2022-10-04T01:44:39;12.00;99.90
51615;DHT22;37695;52.960;6.188;2022-10-04T01:47:15;12.00;99.90
51615;DHT22;37695;52.960;6.188;2022-10-04T01:49:44;12.00;99.90
51615;DHT22;37695;52.960;6.188;2022-10-04T01:52:26;12.00;99.90
51615;DHT22;37695;52.960;6.188;2022-10-04T01:55:01;11.90;99.90
51615;DHT22;37695;52.960;6.188;2022-10-04T01:57:35;11.90;99.90
51615;DHT22;37695;52.960;6.188;2022-10-04T02:00:06;11.80;99.90
51615;DHT22;37695;52.960;6.188;2022-10-04T02:02:38;11.80;99.90
51615;DHT22;37695;52.960;6.188;2022-10-04T02:05:09;11.70;99.90
51615;DHT22;37695;52.960;6.188;2022-10-04T02:07:37;11.70;99.90
51615;DHT22;37695;52.960;6.188;2022-10-04T02:10:08;11.60;99.90
51615;DHT22;37695;52.960;6.188;2022-10-04T02:12:35;11.60;99.90
51615;DHT22;37695;52.960;6.188;2022-10-04T02:15:06;11.50;99.90
51615;DHT22;37695;52.960;6.188;2022-10-04T02:17:38;11.50;99.90
51615;DHT22;37695;52.960;6.188;2022-10-04T02:20:19;11.50;99.90
51615;DHT22;37695;52.960;6.188;2022-10-04T02:22:55;11.40;99.90
51615;DHT22;37695;52.960;6.188;2022-10-04T02:25:23;11.40;99.90
51615;DHT22;37695;52.960;6.188;2022-10-04T02:27:51;11.30;99.90
51615;DHT22;37695;52.960;6.188;2022-10-04T02:30:18;11.30;99.90
51615;DHT22;37695;52.960;6.188;2022-10-04T02:32:44;11.30;99.90
51615;DHT22;37695;52.960;6.188;2022-10-04T02:35:27;11.20;99.90
51615;DHT22;37695;52.960;6.188;2022-10-04T02:38:20;11.20;99.90
51615;DHT22;37695;52.960;6.188;2022-10-04T02:41:00;11.20;99.90
51615;DHT22;37695;52.960;6.188;2022-10-04T02:43:44;11.10;99.90
51615;DHT22;37695;52.960;6.188;2022-10-04T02:46:29;11.10;99.90
51615;DHT22;37695;52.960;6.188;2022-10-04T02:48:58;11.10;99.90
51615;DHT22;37695;52.960;6.188;2022-10-04T02:51:37;11.10;99.90
51615;DHT22;37695;52.960;6.188;2022-10-04T02:54:25;11.00;99.90
51615;DHT22;37695;52.960;6.188;2022-10-04T02:56:53;11.00;99.90
51615;DHT22;37695;52.960;6.188;2022-10-04T02:59:20;10.90;99.90
51615;DHT22;37695;52.960;6.188;2022-10-04T03:01:58;10.90;99.90
51615;DHT22;37695;52.960;6.188;2022-10-04T03:04:32;10.90;99.90
51615;DHT22;37695;52.960;6.188;2022-10-04T03:07:00;10.90;99.90
51615;DHT22;37695;52.960;6.188;2022-10-04T03:09:27;10.80;99.90
51615;DHT22;37695;52.960;6.188;2022-10-04T03:11:53;10.80;99.90
51615;DHT22;37695;52.960;6.188;2022-10-04T03:14:24;10.80;99.90
51615;DHT22;37695;52.960;6.188;2022-10-04T03:16:53;10.80;99.90
51615;DHT22;37695;52.960;6.188;2022-10-04T03:19:21;10.80;99.90
51615;DHT22;37695;52.960;6.188;2022-10-04T03:21:50;10.80;99.90
51615;DHT22;37695;52.960;6.188;2022-10-04T03:24:20;10.70;99.90
51615;DHT22;37695;52.960;6.188;2022-10-04T03:26:58;10.70;99.90
51615;DHT22;37695;52.960;6.188;2022-10-04T03:29:26;10.70;99.90
51615;DHT22;37695;52.960;6.188;2022-10-04T03:31:55;10.60;99.90
51615;DHT22;37695;52.960;6.188;2022-10-04T03:34:40;10.60;99.90
51615;DHT22;37695;52.960;6.188;2022-10-04T03:37:14;10.60;99.90
51615;DHT22;37695;52.960;6.188;2022-10-04T03:39:46;10.60;99.90
51615;DHT22;37695;52.960;6.188;2022-10-04T03:42:22;10.50;99.90
51615;DHT22;37695;52.960;6.188;2022-10-04T03:44:52;10.50;99.90
51615;DHT22;37695;52.960;6.188;2022-10-04T03:47:21;10.40;99.90
51615;DHT22;37695;52.960;6.188;2022-10-04T03:49:49;10.40;99.90
51615;DHT22;37695;52.960;6.188;2022-10-04T03:52:30;10.40;99.90
51615;DHT22;37695;52.960;6.188;2022-10-04T03:54:59;10.40;99.90
51615;DHT22;37695;52.960;6.188;2022-10-04T03:57:26;10.40;99.90
51615;DHT22;37695;52.960;6.188;2022-10-04T03:59:52;10.40;99.90
51615;DHT22;37695;52.960;6.188;2022-10-04T04:05:23;10.40;99.90
51615;DHT22;37695;52.960;6.188;2022-10-04T04:08:06;10.30;99.90
51615;DHT22;37695;52.960;6.188;2022-10-04T04:10:43;10.30;99.90
51615;DHT22;37695;52.960;6.188;2022-10-04T04:13:30;10.30;99.90
51615;DHT22;37695;52.960;6.188;2022-10-04T04:16:00;10.20;99.90
51615;DHT22;37695;52.960;6.188;2022-10-04T04:18:29;10.20;99.90
51615;DHT22;37695;52.960;6.188;2022-10-04T04:20:55;10.20;99.90
51615;DHT22;37695;52.960;6.188;2022-10-04T04:23:38;10.20;99.90
51615;DHT22;37695;52.960;6.188;2022-10-04T04:28:47;10.20;99.90
51615;DHT22;37695;52.960;6.188;2022-10-04T04:31:23;10.20;99.90
51615;DHT22;37695;52.960;6.188;2022-10-04T04:34:00;10.20;99.90
51615;DHT22;37695;52.960;6.188;2022-10-04T04:36:31;10.20;99.90
51615;DHT22;37695;52.960;6.188;2022-10-04T04:42:24;10.10;99.90
51615;DHT22;37695;52.960;6.188;2022-10-04T04:45:02;10.10;99.90
51615;DHT22;37695;52.960;6.188;2022-10-04T04:47:32;10.10;99.90
51615;DHT22;37695;52.960;6.188;2022-10-04T04:50:06;10.10;99.90
51615;DHT22;37695;52.960;6.188;2022-10-04T04:52:33;10.10;99.90
51615;DHT22;37695;52.960;6.188;2022-10-04T04:55:00;10.10;99.90
51615;DHT22;37695;52.960;6.188;2022-10-04T04:57:26;10.10;99.90
51615;DHT22;37695;52.960;6.188;2022-10-04T04:59:56;10.00;99.90
51615;DHT22;37695;52.960;6.188;2022-10-04T05:02:34;10.00;99.90
51615;DHT22;37695;52.960;6.188;2022-10-04T05:08:10;10.00;99.90
51615;DHT22;37695;52.960;6.188;2022-10-04T05:10:40;10.00;99.90
51615;DHT22;37695;52.960;6.188;2022-10-04T05:13:08;10.00;99.90
51615;DHT22;37695;52.960;6.188;2022-10-04T05:15:36;10.00;99.90
51615;DHT22;37695;52.960;6.188;2022-10-04T05:20:48;10.00;99.90
51615;DHT22;37695;52.960;6.188;2022-10-04T05:23:14;10.00;99.90
51615;DHT22;37695;52.960;6.188;2022-10-04T05:25:40;9.90;99.90
51615;DHT22;37695;52.960;6.188;2022-10-04T05:28:10;9.90;99.90
51615;DHT22;37695;52.960;6.188;2022-10-04T05:33:46;9.90;99.90
51615;DHT22;37695;52.960;6.188;2022-10-04T05:36:34;9.90;99.90
51615;DHT22;37695;52.960;6.188;2022-10-04T05:39:14;9.90;99.90
51615;DHT22;37695;52.960;6.188;2022-10-04T05:41:50;10.00;99.90
51615;DHT22;37695;52.960;6.188;2022-10-04T05:44:26;10.00;99.90
51615;DHT22;37695;52.960;6.188;2022-10-04T05:46:54;9.90;99.90
51615;DHT22;37695;52.960;6.188;2022-10-04T05:49:21;10.00;99.90
51615;DHT22;37695;52.960;6.188;2022-10-04T05:51:58;9.90;99.90
51615;DHT22;37695;52.960;6.188;2022-10-04T05:54:29;9.90;99.90
51615;DHT22;37695;52.960;6.188;2022-10-04T06:00:19;9.90;99.90
51615;DHT22;37695;52.960;6.188;2022-10-04T06:05:41;9.90;99.90
51615;DHT22;37695;52.960;6.188;2022-10-04T06:08:26;9.90;99.90
51615;DHT22;37695;52.960;6.188;2022-10-04T06:19:33;9.90;99.90
51615;DHT22;37695;52.960;6.188;2022-10-04T06:22:18;9.90;99.90
51615;DHT22;37695;52.960;6.188;2022-10-04T06:25:02;9.90;99.90
51615;DHT22;37695;52.960;6.188;2022-10-04T06:27:34;10.00;99.90
51615;DHT22;37695;52.960;6.188;2022-10-04T06:30:03;10.10;99.90
51615;DHT22;37695;52.960;6.188;2022-10-04T06:35:51;10.20;99.90
51615;DHT22;37695;52.960;6.188;2022-10-04T06:38:52;10.30;99.90
51615;DHT22;37695;52.960;6.188;2022-10-04T06:41:23;10.40;99.90
51615;DHT22;37695;52.960;6.188;2022-10-04T06:46:36;10.70;99.90
51615;DHT22;37695;52.960;6.188;2022-10-04T06:49:13;10.70;99.90
51615;DHT22;37695;52.960;6.188;2022-10-04T07:00:09;11.00;99.90
51615;DHT22;37695;52.960;6.188;2022-10-04T07:06:00;11.00;99.90
51615;DHT22;37695;52.960;6.188;2022-10-04T07:08:40;11.00;99.90
51615;DHT22;37695;52.960;6.188;2022-10-04T07:14:10;11.00;99.90
51615;DHT22;37695;52.960;6.188;2022-10-04T07:17:02;11.00;99.90
51615;DHT22;37695;52.960;6.188;2022-10-04T07:19:36;11.10;99.90
51615;DHT22;37695;52.960;6.188;2022-10-04T07:27:27;11.30;99.90
51615;DHT22;37695;52.960;6.188;2022-10-04T07:29:56;11.40;99.90
51615;DHT22;37695;52.960;6.188;2022-10-04T07:32:35;11.60;99.90
51615;DHT22;37695;52.960;6.188;2022-10-04T07:35:28;11.70;99.90
51615;DHT22;37695;52.960;6.188;2022-10-04T07:38:15;11.80;99.90
51615;DHT22;37695;52.960;6.188;2022-10-04T07:40:58;11.90;99.90
51615;DHT22;37695;52.960;6.188;2022-10-04T07:43:32;12.00;99.90
51615;DHT22;37695;52.960;6.188;2022-10-04T07:46:10;12.00;99.90
51615;DHT22;37695;52.960;6.188;2022-10-04T07:48:40;12.00;99.90
51615;DHT22;37695;52.960;6.188;2022-10-04T07:51:43;12.10;99.90
51615;DHT22;37695;52.960;6.188;2022-10-04T07:54:26;12.00;99.90
51615;DHT22;37695;52.960;6.188;2022-10-04T08:00:03;12.00;99.90
51615;DHT22;37695;52.960;6.188;2022-10-04T08:05:31;11.90;99.90
51615;DHT22;37695;52.960;6.188;2022-10-04T08:16:14;12.10;99.90
51615;DHT22;37695;52.960;6.188;2022-10-04T08:19:26;12.30;99.90
51615;DHT22;37695;52.960;6.188;2022-10-04T08:25:04;12.70;99.90
51615;DHT22;37695;52.960;6.188;2022-10-04T08:30:51;12.70;99.90
51615;DHT22;37695;52.960;6.188;2022-10-04T08:36:45;12.90;99.90
51615;DHT22;37695;52.960;6.188;2022-10-04T08:39:51;13.00;99.90
51615;DHT22;37695;52.960;6.188;2022-10-04T08:48:21;13.60;99.90
51615;DHT22;37695;52.960;6.188;2022-10-04T08:56:40;13.90;99.90
51615;DHT22;37695;52.960;6.188;2022-10-04T08:59:59;14.00;99.90
51615;DHT22;37695;52.960;6.188;2022-10-04T09:05:24;14.10;99.90
51615;DHT22;37695;52.960;6.188;2022-10-04T09:17:06;14.30;99.90
51615;DHT22;37695;52.960;6.188;2022-10-04T09:19:53;14.40;99.90
51615;DHT22;37695;52.960;6.188;2022-10-04T09:25:54;14.50;99.90
51615;DHT22;37695;52.960;6.188;2022-10-04T09:50:55;15.00;99.90
51615;DHT22;37695;52.960;6.188;2022-10-04T10:15:54;15.50;99.90
51615;DHT22;37695;52.960;6.188;2022-10-04T10:18:39;15.50;99.90
51615;DHT22;37695;52.960;6.188;2022-10-04T10:27:06;15.70;99.90
51615;DHT22;37695;52.960;6.188;2022-10-04T10:29:52;15.80;99.90
51615;DHT22;37695;52.960;6.188;2022-10-04T10:32:40;15.80;99.90
51615;DHT22;37695;52.960;6.188;2022-10-04T10:38:22;15.80;99.90
51615;DHT22;37695;52.960;6.188;2022-10-04T10:44:09;15.90;99.90
51615;DHT22;37695;52.960;6.188;2022-10-04T10:49:40;16.10;99.90
51615;DHT22;37695;52.960;6.188;2022-10-04T10:58:17;15.90;99.90
51615;DHT22;37695;52.960;6.188;2022-10-04T11:01:02;16.00;99.90
51615;DHT22;37695;52.960;6.188;2022-10-04T11:09:27;16.10;99.90
51615;DHT22;37695;52.960;6.188;2022-10-04T11:31:21;16.50;99.90
51615;DHT22;37695;52.960;6.188;2022-10-04T11:36:49;16.70;99.90
51615;DHT22;37695;52.960;6.188;2022-10-04T11:48:00;16.80;99.90
51615;DHT22;37695;52.960;6.188;2022-10-04T11:53:19;16.80;99.90
51615;DHT22;37695;52.960;6.188;2022-10-04T11:58:48;16.80;99.90
51615;DHT22;37695;52.960;6.188;2022-10-04T12:04:42;16.70;99.90
51615;DHT22;37695;52.960;6.188;2022-10-04T12:07:26;16.70;99.90
51615;DHT22;37695;52.960;6.188;2022-10-04T12:10:20;16.70;99.90
51615;DHT22;37695;52.960;6.188;2022-10-04T12:13:04;16.60;99.90
51615;DHT22;37695;52.960;6.188;2022-10-04T12:21:56;16.60;99.90
51615;DHT22;37695;52.960;6.188;2022-10-04T12:33:10;16.60;99.90
51615;DHT22;37695;52.960;6.188;2022-10-04T12:35:58;16.60;99.90
51615;DHT22;37695;52.960;6.188;2022-10-04T12:52:25;16.90;99.90
51615;DHT22;37695;52.960;6.188;2022-10-04T12:57:40;17.00;99.90
51615;DHT22;37695;52.960;6.188;2022-10-04T13:16:43;16.60;99.90
51615;DHT22;37695;52.960;6.188;2022-10-04T13:19:28;16.60;99.90
51615;DHT22;37695;52.960;6.188;2022-10-04T13:22:20;16.60;99.90
51615;DHT22;37695;52.960;6.188;2022-10-04T13:30:43;16.60;99.90
51615;DHT22;37695;52.960;6.188;2022-10-04T13:33:41;16.70;99.90
51615;DHT22;37695;52.960;6.188;2022-10-04T13:36:22;16.90;99.90
51615;DHT22;37695;52.960;6.188;2022-10-04T13:42:42;17.20;99.90
51615;DHT22;37695;52.960;6.188;2022-10-04T13:45:13;17.10;99.90
51615;DHT22;37695;52.960;6.188;2022-10-04T13:48:03;17.10;99.90
51615;DHT22;37695;52.960;6.188;2022-10-04T13:50:46;17.00;99.90
51615;DHT22;37695;52.960;6.188;2022-10-04T13:53:37;17.00;99.90
51615;DHT22;37695;52.960;6.188;2022-10-04T14:02:03;16.90;99.90
51615;DHT22;37695;52.960;6.188;2022-10-04T14:07:40;16.90;99.90
51615;DHT22;37695;52.960;6.188;2022-10-04T14:13:01;16.80;99.90
51615;DHT22;37695;52.960;6.188;2022-10-04T14:15:49;16.80;99.90
51615;DHT22;37695;52.960;6.188;2022-10-04T14:19:09;16.80;99.90
51615;DHT22;37695;52.960;6.188;2022-10-04T14:30:26;16.80;99.90
51615;DHT22;37695;52.960;6.188;2022-10-04T14:33:17;16.80;99.90
51615;DHT22;37695;52.960;6.188;2022-10-04T14:35:55;16.80;99.90
51615;DHT22;37695;52.960;6.188;2022-10-04T14:44:44;16.90;99.90
51615;DHT22;37695;52.960;6.188;2022-10-04T14:53:08;16.90;99.90
51615;DHT22;37695;52.960;6.188;2022-10-04T14:58:38;16.80;99.90
51615;DHT22;37695;52.960;6.188;2022-10-04T15:06:37;16.50;99.90
51615;DHT22;37695;52.960;6.188;2022-10-04T15:12:37;16.70;99.90
51615;DHT22;37695;52.960;6.188;2022-10-04T15:23:14;16.60;99.90
51615;DHT22;37695;52.960;6.188;2022-10-04T15:25:47;16.50;99.90
51615;DHT22;37695;52.960;6.188;2022-10-04T15:28:59;16.60;99.90
51615;DHT22;37695;52.960;6.188;2022-10-04T15:31:51;16.60;99.90
51615;DHT22;37695;52.960;6.188;2022-10-04T15:34:31;16.70;99.90
51615;DHT22;37695;52.960;6.188;2022-10-04T15:42:35;16.80;99.90
51615;DHT22;37695;52.960;6.188;2022-10-04T15:47:54;16.80;99.90
51615;DHT22;37695;52.960;6.188;2022-10-04T15:56:22;16.50;99.90
51615;DHT22;37695;52.960;6.188;2022-10-04T15:58:58;16.40;99.90
51615;DHT22;37695;52.960;6.188;2022-10-04T16:04:33;16.30;99.90
51615;DHT22;37695;52.960;6.188;2022-10-04T16:10:05;16.10;99.90
51615;DHT22;37695;52.960;6.188;2022-10-04T16:15:38;16.10;99.90
51615;DHT22;37695;52.960;6.188;2022-10-04T16:18:14;16.00;99.90
51615;DHT22;37695;52.960;6.188;2022-10-04T16:21:07;15.90;99.90
51615;DHT22;37695;52.960;6.188;2022-10-04T16:23:38;15.90;99.90
51615;DHT22;37695;52.960;6.188;2022-10-04T16:26:11;15.80;99.90
51615;DHT22;37695;52.960;6.188;2022-10-04T16:31:52;15.70;99.90
51615;DHT22;37695;52.960;6.188;2022-10-04T16:42:33;15.50;99.90
51615;DHT22;37695;52.960;6.188;2022-10-04T16:47:49;15.40;99.90
51615;DHT22;37695;52.960;6.188;2022-10-04T16:56:22;15.30;99.90
51615;DHT22;37695;52.960;6.188;2022-10-04T16:58:54;15.20;99.90
51615;DHT22;37695;52.960;6.188;2022-10-04T17:09:49;15.10;99.90
51615;DHT22;37695;52.960;6.188;2022-10-04T17:12:45;15.00;99.90
51615;DHT22;37695;52.960;6.188;2022-10-04T17:23:43;14.90;99.90
51615;DHT22;37695;52.960;6.188;2022-10-04T17:26:37;14.90;99.90
51615;DHT22;37695;52.960;6.188;2022-10-04T17:29:30;14.80;99.90
51615;DHT22;37695;52.960;6.188;2022-10-04T17:32:07;14.80;99.90
51615;DHT22;37695;52.960;6.188;2022-10-04T17:43:15;14.80;99.90
51615;DHT22;37695;52.960;6.188;2022-10-04T17:48:31;14.90;99.90
51615;DHT22;37695;52.960;6.188;2022-10-04T17:54:44;14.90;99.90
51615;DHT22;37695;52.960;6.188;2022-10-04T17:57:40;15.00;99.90
51615;DHT22;37695;52.960;6.188;2022-10-04T18:03:17;15.10;99.90
51615;DHT22;37695;52.960;6.188;2022-10-04T18:08:09;15.20;99.90
51615;DHT22;37695;52.960;6.188;2022-10-04T18:10:39;15.20;99.90
51615;DHT22;37695;52.960;6.188;2022-10-04T18:13:30;15.20;99.90
51615;DHT22;37695;52.960;6.188;2022-10-04T18:18:39;15.20;99.90
51615;DHT22;37695;52.960;6.188;2022-10-04T18:21:27;15.30;99.90
51615;DHT22;37695;52.960;6.188;2022-10-04T18:24:17;15.30;99.90
51615;DHT22;37695;52.960;6.188;2022-10-04T18:26:57;15.30;99.90
51615;DHT22;37695;52.960;6.188;2022-10-04T18:29:37;15.30;99.90
51615;DHT22;37695;52.960;6.188;2022-10-04T18:32:30;15.30;99.90
51615;DHT22;37695;52.960;6.188;2022-10-04T18:35:00;15.30;99.90
51615;DHT22;37695;52.960;6.188;2022-10-04T18:37:33;15.30;99.90
51615;DHT22;37695;52.960;6.188;2022-10-04T18:40:23;15.30;99.90
51615;DHT22;37695;52.960;6.188;2022-10-04T18:42:55;15.40;99.90
51615;DHT22;37695;52.960;6.188;2022-10-04T18:45:26;15.40;99.90
51615;DHT22;37695;52.960;6.188;2022-10-04T18:47:53;15.40;99.90
51615;DHT22;37695;52.960;6.188;2022-10-04T18:58:33;15.40;99.90
51615;DHT22;37695;52.960;6.188;2022-10-04T19:07:14;15.50;99.90
51615;DHT22;37695;52.960;6.188;2022-10-04T19:10:05;15.50;99.90
51615;DHT22;37695;52.960;6.188;2022-10-04T19:18:28;15.60;99.90
51615;DHT22;37695;52.960;6.188;2022-10-04T19:21:02;15.60;99.90
51615;DHT22;37695;52.960;6.188;2022-10-04T19:23:35;15.60;99.90
51615;DHT22;37695;52.960;6.188;2022-10-04T19:26:13;15.60;99.90
51615;DHT22;37695;52.960;6.188;2022-10-04T19:28:50;15.60;99.90
51615;DHT22;37695;52.960;6.188;2022-10-04T19:31:24;15.60;99.90
51615;DHT22;37695;52.960;6.188;2022-10-04T19:34:13;15.60;99.90
51615;DHT22;37695;52.960;6.188;2022-10-04T19:40:01;15.70;99.90
51615;DHT22;37695;52.960;6.188;2022-10-04T19:42:48;15.60;99.90
51615;DHT22;37695;52.960;6.188;2022-10-04T19:45:21;15.60;99.90
51615;DHT22;37695;52.960;6.188;2022-10-04T19:47:52;15.60;99.90
51615;DHT22;37695;52.960;6.188;2022-10-04T19:50:34;15.60;99.90
51615;DHT22;37695;52.960;6.188;2022-10-04T19:53:17;15.60;99.90
51615;DHT22;37695;52.960;6.188;2022-10-04T19:55:53;15.60;99.90
51615;DHT22;37695;52.960;6.188;2022-10-04T19:58:35;15.20;99.90
51615;DHT22;37695;52.960;6.188;2022-10-04T20:01:15;15.60;99.90
51615;DHT22;37695;52.960;6.188;2022-10-04T20:03:42;15.70;99.90
51615;DHT22;37695;52.960;6.188;2022-10-04T20:06:09;15.60;99.90
51615;DHT22;37695;52.960;6.188;2022-10-04T20:11:27;15.60;99.90
51615;DHT22;37695;52.960;6.188;2022-10-04T20:21:47;15.60;99.90
51615;DHT22;37695;52.960;6.188;2022-10-04T20:27:01;15.60;99.90
51615;DHT22;37695;52.960;6.188;2022-10-04T20:32:51;15.60;99.90
51615;DHT22;37695;52.960;6.188;2022-10-04T20:34:59;15.60;99.90
51615;DHT22;37695;52.960;6.188;2022-10-04T20:45:48;15.60;99.90
51615;DHT22;37695;52.960;6.188;2022-10-04T20:48:18;15.60;99.90
51615;DHT22;37695;52.960;6.188;2022-10-04T20:50:45;15.60;99.90
51615;DHT22;37695;52.960;6.188;2022-10-04T20:53:28;15.50;99.90
51615;DHT22;37695;52.960;6.188;2022-10-04T20:58:38;15.50;99.90
51615;DHT22;37695;52.960;6.188;2022-10-04T21:01:21;15.50;99.90
51615;DHT22;37695;52.960;6.188;2022-10-04T21:04:24;15.50;99.90
51615;DHT22;37695;52.960;6.188;2022-10-04T21:06:59;15.50;99.90
51615;DHT22;37695;52.960;6.188;2022-10-04T21:09:25;15.50;99.90
51615;DHT22;37695;52.960;6.188;2022-10-04T21:11:53;15.50;99.90
51615;DHT22;37695;52.960;6.188;2022-10-04T21:14:24;15.50;99.90
51615;DHT22;37695;52.960;6.188;2022-10-04T21:16:51;15.50;99.90
51615;DHT22;37695;52.960;6.188;2022-10-04T21:24:36;15.40;99.90
51615;DHT22;37695;52.960;6.188;2022-10-04T21:27:10;15.40;99.90
51615;DHT22;37695;52.960;6.188;2022-10-04T21:29:36;15.40;99.90
51615;DHT22;37695;52.960;6.188;2022-10-04T21:32:02;15.50;99.90
51615;DHT22;37695;52.960;6.188;2022-10-04T21:34:28;15.40;99.90
51615;DHT22;37695;52.960;6.188;2022-10-04T21:36:54;15.40;99.90
51615;DHT22;37695;52.960;6.188;2022-10-04T21:39:19;15.50;99.90
51615;DHT22;37695;52.960;6.188;2022-10-04T21:41:45;15.50;99.90
51615;DHT22;37695;52.960;6.188;2022-10-04T21:44:11;15.40;99.90
51615;DHT22;37695;52.960;6.188;2022-10-04T21:46:37;15.40;99.90
51615;DHT22;37695;52.960;6.188;2022-10-04T21:49:03;15.40;99.90
51615;DHT22;37695;52.960;6.188;2022-10-04T21:51:29;15.40;99.90
51615;DHT22;37695;52.960;6.188;2022-10-04T21:53:57;15.40;99.90
51615;DHT22;37695;52.960;6.188;2022-10-04T21:56:24;15.40;99.90
51615;DHT22;37695;52.960;6.188;2022-10-04T21:58:49;15.50;99.90
51615;DHT22;37695;52.960;6.188;2022-10-04T22:01:15;15.50;99.90
51615;DHT22;37695;52.960;6.188;2022-10-04T22:03:41;15.50;99.90
51615;DHT22;37695;52.960;6.188;2022-10-04T22:06:06;15.40;99.90
51615;DHT22;37695;52.960;6.188;2022-10-04T22:08:32;15.50;99.90
51615;DHT22;37695;52.960;6.188;2022-10-04T22:10:58;15.40;99.90
51615;DHT22;37695;52.960;6.188;2022-10-04T22:13:23;15.50;99.90
51615;DHT22;37695;52.960;6.188;2022-10-04T22:15:51;15.50;99.90
51615;DHT22;37695;52.960;6.188;2022-10-04T22:18:16;15.40;99.90
51615;DHT22;37695;52.960;6.188;2022-10-04T22:20:42;15.40;99.90
51615;DHT22;37695;52.960;6.188;2022-10-04T22:23:20;15.50;99.90
51615;DHT22;37695;52.960;6.188;2022-10-04T22:25:46;15.50;99.90
51615;DHT22;37695;52.960;6.188;2022-10-04T22:28:21;15.50;99.90
51615;DHT22;37695;52.960;6.188;2022-10-04T22:30:47;15.50;99.90
51615;DHT22;37695;52.960;6.188;2022-10-04T22:33:35;15.50;99.90
51615;DHT22;37695;52.960;6.188;2022-10-04T22:36:14;15.50;99.90
51615;DHT22;37695;52.960;6.188;2022-10-04T22:41:39;15.50;99.90
51615;DHT22;37695;52.960;6.188;2022-10-04T22:44:19;15.50;99.90
51615;DHT22;37695;52.960;6.188;2022-10-04T22:46:48;15.50;99.90
51615;DHT22;37695;52.960;6.188;2022-10-04T22:49:20;15.50;99.90
51615;DHT22;37695;52.960;6.188;2022-10-04T22:51:48;15.50;99.90
51615;DHT22;37695;52.960;6.188;2022-10-04T22:54:16;15.50;99.90
51615;DHT22;37695;52.960;6.188;2022-10-04T22:56:42;15.50;99.90
51615;DHT22;37695;52.960;6.188;2022-10-04T22:59:12;15.50;99.90
51615;DHT22;37695;52.960;6.188;2022-10-04T23:01:38;15.40;99.90
51615;DHT22;37695;52.960;6.188;2022-10-04T23:04:14;15.50;99.90
51615;DHT22;37695;52.960;6.188;2022-10-04T23:06:40;15.40;99.90
51615;DHT22;37695;52.960;6.188;2022-10-04T23:09:06;15.40;99.90
51615;DHT22;37695;52.960;6.188;2022-10-04T23:11:32;15.40;99.90
51615;DHT22;37695;52.960;6.188;2022-10-04T23:13:57;15.50;99.90
51615;DHT22;37695;52.960;6.188;2022-10-04T23:16:23;15.40;99.90
51615;DHT22;37695;52.960;6.188;2022-10-04T23:18:50;15.40;99.90
51615;DHT22;37695;52.960;6.188;2022-10-04T23:21:24;15.50;99.90
51615;DHT22;37695;52.960;6.188;2022-10-04T23:23:51;15.40;99.90
51615;DHT22;37695;52.960;6.188;2022-10-04T23:26:36;15.40;99.90
51615;DHT22;37695;52.960;6.188;2022-10-04T23:29:06;15.40;99.90
51615;DHT22;37695;52.960;6.188;2022-10-04T23:31:37;15.40;99.90
51615;DHT22;37695;52.960;6.188;2022-10-04T23:34:15;15.40;99.90
51615;DHT22;37695;52.960;6.188;2022-10-04T23:36:41;15.40;99.90
51615;DHT22;37695;52.960;6.188;2022-10-04T23:39:12;15.40;99.90
51615;DHT22;37695;52.960;6.188;2022-10-04T23:41:42;15.40;99.90
51615;DHT22;37695;52.960;6.188;2022-10-04T23:44:12;15.40;99.90
51615;DHT22;37695;52.960;6.188;2022-10-04T23:46:39;15.40;99.90
51615;DHT22;37695;52.960;6.188;2022-10-04T23:49:06;15.40;99.90
51615;DHT22;37695;52.960;6.188;2022-10-04T23:51:32;15.40;99.90
51615;DHT22;37695;52.960;6.188;2022-10-04T23:53:58;15.40;99.90
51615;DHT22;37695;52.960;6.188;2022-10-04T23:56:27;15.30;99.90
51615;DHT22;37695;52.960;6.188;2022-10-04T23:58:55;15.40;99.90
